Sterling, Georgia
Current Conditions -  °F | °C
As of 6:55 PM on Saturday 22 Nov 2014 (Local Time) from KBQK Reporting Station
NA  
Wind Chill: 61°   Ceiling: NA
Heat Index: 61°   Visibility: 10mi
Dew Point: 57°   Wind: 6mph
Humidity: 88%   Direction: 50°NE
Pressure: 30.26"   Gusts: NA
Location:  31.2665°N, 81.6074°W
Report Text: KBQK 222355Z AUTO 05005KT 10SM 16/14 A3026 RMK AO1
Loading
Personal Weather Stations






























Interactive Weather Map New forecast layout! Learn more

10-Day Weather Forecast

Advertisements
Track Severe Weather on mobile